Time;durP1;ratioP1;P1;durP2;ratioP2;P2;SDS_P1;SDS_P2;PMS_P1;PMS_P2;Temp;Humidity;BMP_temperature;BMP_pressure;BME280_temperature;BME280_humidity;BME280_pressure;Samples;Min_cycle;Max_cycle;Signal;HPM_P1;HPM_P2
2021/08/22 00:01:05;;;;;;;4.11;2.89;;;;;;;21.90;71.82;100444.92;;;;-60
2021/08/22 00:04:05;;;;;;;3.44;2.73;;;;;;;21.90;71.90;100510.70;;;;-61
2021/08/22 00:07:05;;;;;;;3.37;2.97;;;;;;;21.90;71.94;100543.48;;;;-61
2021/08/22 00:10:05;;;;;;;3.45;3.00;;;;;;;21.89;71.95;100569.78;;;;-61
2021/08/22 00:13:05;;;;;;;3.09;2.80;;;;;;;21.89;71.92;100561.27;;;;-61
2021/08/22 00:16:05;;;;;;;2.79;2.54;;;;;;;21.89;71.91;100545.36;;;;-60
2021/08/22 00:19:05;;;;;;;3.72;2.87;;;;;;;21.88;71.87;100537.47;;;;-61
2021/08/22 00:22:05;;;;;;;4.45;2.86;;;;;;;21.88;71.86;100521.88;;;;-61
2021/08/22 00:25:05;;;;;;;3.98;2.91;;;;;;;21.86;71.83;100514.29;;;;-61
2021/08/22 00:28:05;;;;;;;3.19;2.89;;;;;;;21.87;71.86;100517.63;;;;-60
2021/08/22 00:31:05;;;;;;;2.91;2.71;;;;;;;21.86;71.86;100529.47;;;;-60
2021/08/22 00:34:05;;;;;;;3.43;2.97;;;;;;;21.86;71.88;100539.59;;;;-61
2021/08/22 00:37:05;;;;;;;3.15;2.85;;;;;;;21.85;71.89;100523.53;;;;-61
2021/08/22 00:40:05;;;;;;;3.93;2.83;;;;;;;21.85;71.89;100523.37;;;;-61
2021/08/22 00:43:05;;;;;;;3.14;2.84;;;;;;;21.85;71.90;100523.19;;;;-61
2021/08/22 00:46:05;;;;;;;2.95;2.64;;;;;;;21.84;71.89;100517.06;;;;-61
2021/08/22 00:49:05;;;;;;;3.15;2.85;;;;;;;21.84;71.87;100501.83;;;;-61
2021/08/22 00:52:05;;;;;;;3.26;2.96;;;;;;;21.83;71.92;100493.67;;;;-60
2021/08/22 00:55:05;;;;;;;3.51;2.85;;;;;;;21.83;71.92;100477.73;;;;-61
2021/08/22 00:58:05;;;;;;;3.12;2.81;;;;;;;21.82;71.90;100457.03;;;;-61
2021/08/22 01:01:06;;;;;;;3.16;2.87;;;;;;;21.81;71.89;100434.52;;;;-61
2021/08/22 01:04:05;;;;;;;3.15;2.57;;;;;;;21.82;71.93;100418.12;;;;-60
2021/08/22 01:07:05;;;;;;;2.97;2.68;;;;;;;21.80;71.89;100389.66;;;;-61
2021/08/22 01:10:05;;;;;;;3.07;2.77;;;;;;;21.80;71.95;100379.87;;;;-53
2021/08/22 01:13:07;;;;;;;3.63;2.85;;;;;;;21.79;71.91;100378.09;;;;-53
2021/08/22 01:16:05;;;;;;;3.95;2.63;;;;;;;21.79;71.96;100373.34;;;;-53
2021/08/22 01:19:05;;;;;;;2.95;2.69;;;;;;;21.79;71.91;100365.52;;;;-53
2021/08/22 01:22:05;;;;;;;3.03;2.73;;;;;;;21.78;71.94;100369.43;;;;-63
2021/08/22 01:25:05;;;;;;;3.22;2.83;;;;;;;21.78;71.99;100375.80;;;;-61
2021/08/22 01:28:06;;;;;;;2.86;2.66;;;;;;;21.78;71.98;100390.72;;;;-61
2021/08/22 01:31:05;;;;;;;3.02;2.72;;;;;;;21.76;72.03;100391.54;;;;-62
2021/08/22 01:34:05;;;;;;;2.91;2.65;;;;;;;21.77;72.03;100400.85;;;;-61
2021/08/22 01:37:05;;;;;;;3.19;2.72;;;;;;;21.77;72.04;100400.10;;;;-63
2021/08/22 01:40:05;;;;;;;4.27;2.84;;;;;;;21.76;72.04;100405.33;;;;-62
2021/08/22 01:43:05;;;;;;;2.79;2.59;;;;;;;21.76;72.06;100403.05;;;;-63
2021/08/22 01:46:06;;;;;;;2.95;2.65;;;;;;;21.76;72.05;100400.60;;;;-63
2021/08/22 01:49:05;;;;;;;2.89;2.59;;;;;;;21.76;72.05;100405.99;;;;-63
2021/08/22 01:52:06;;;;;;;2.88;2.68;;;;;;;21.75;72.06;100403.37;;;;-61
2021/08/22 01:55:05;;;;;;;2.89;2.61;;;;;;;21.75;72.08;100413.16;;;;-53
2021/08/22 01:58:05;;;;;;;2.98;2.67;;;;;;;21.75;72.08;100421.42;;;;-53
2021/08/22 02:01:04;;;;;;;2.97;2.76;;;;;;;21.75;72.13;100423.44;;;;-53
2021/08/22 02:04:05;;;;;;;2.70;2.50;;;;;;;21.74;72.11;100429.65;;;;-53
2021/08/22 02:07:05;;;;;;;2.75;2.51;;;;;;;21.74;72.09;100439.67;;;;-53
2021/08/22 02:10:05;;;;;;;2.85;2.54;;;;;;;21.73;72.10;100437.58;;;;-53
2021/08/22 02:13:05;;;;;;;2.78;2.36;;;;;;;21.73;72.13;100443.61;;;;-53
2021/08/22 02:16:06;;;;;;;3.11;2.73;;;;;;;21.72;72.10;100447.28;;;;-61
2021/08/22 02:19:04;;;;;;;3.17;2.51;;;;;;;21.72;72.14;100457.88;;;;-61
2021/08/22 02:22:05;;;;;;;3.07;2.77;;;;;;;21.72;72.11;100449.80;;;;-61
2021/08/22 02:25:05;;;;;;;2.78;2.58;;;;;;;21.72;72.17;100452.41;;;;-61
2021/08/22 02:28:05;;;;;;;3.05;2.67;;;;;;;21.72;72.17;100449.80;;;;-61
2021/08/22 02:31:05;;;;;;;2.95;2.56;;;;;;;21.71;72.16;100451.20;;;;-61
2021/08/22 02:34:05;;;;;;;2.88;2.59;;;;;;;21.71;72.17;100453.33;;;;-61
2021/08/22 02:37:05;;;;;;;2.58;2.38;;;;;;;21.71;72.16;100452.34;;;;-60
2021/08/22 02:40:05;;;;;;;2.88;2.67;;;;;;;21.70;72.14;100450.87;;;;-61
2021/08/22 02:43:05;;;;;;;2.57;2.37;;;;;;;21.70;72.18;100456.08;;;;-60
2021/08/22 02:46:05;;;;;;;2.83;2.51;;;;;;;21.69;72.21;100456.59;;;;-53
2021/08/22 02:49:05;;;;;;;2.69;2.49;;;;;;;21.69;72.20;100458.38;;;;-61
2021/08/22 02:52:05;;;;;;;2.81;2.58;;;;;;;21.69;72.23;100458.63;;;;-60
2021/08/22 02:55:05;;;;;;;2.72;2.50;;;;;;;21.69;72.17;100454.55;;;;-60
2021/08/22 02:58:05;;;;;;;2.79;2.34;;;;;;;21.69;72.23;100455.53;;;;-63
2021/08/22 03:01:05;;;;;;;3.45;2.50;;;;;;;21.69;72.22;100452.19;;;;-62
2021/08/22 03:04:05;;;;;;;2.77;2.55;;;;;;;21.69;72.22;100459.20;;;;-62
2021/08/22 03:07:05;;;;;;;2.63;2.43;;;;;;;21.67;72.23;100453.58;;;;-62
2021/08/22 03:10:05;;;;;;;2.77;2.53;;;;;;;21.67;72.23;100455.94;;;;-61
2021/08/22 03:13:05;;;;;;;2.55;2.35;;;;;;;21.68;72.20;100460.98;;;;-61
2021/08/22 03:16:04;;;;;;;2.69;2.49;;;;;;;21.67;72.22;100463.28;;;;-61
2021/08/22 03:19:05;;;;;;;2.68;2.48;;;;;;;21.66;72.26;100461.80;;;;-60
2021/08/22 03:22:05;;;;;;;2.57;2.37;;;;;;;21.67;72.26;100471.53;;;;-62
2021/08/22 03:25:05;;;;;;;2.53;2.33;;;;;;;21.66;72.26;100470.44;;;;-62
2021/08/22 03:28:05;;;;;;;3.24;2.35;;;;;;;21.66;72.26;100475.50;;;;-63
2021/08/22 03:31:04;;;;;;;2.76;2.47;;;;;;;21.66;72.29;100481.47;;;;-61
2021/08/22 03:34:05;;;;;;;2.65;2.45;;;;;;;21.66;72.26;100483.91;;;;-61
2021/08/22 03:37:05;;;;;;;2.50;2.27;;;;;;;21.65;72.27;100483.34;;;;-62
2021/08/22 03:40:04;;;;;;;2.69;2.49;;;;;;;21.65;72.27;100478.22;;;;-61
2021/08/22 03:43:05;;;;;;;2.63;2.41;;;;;;;21.65;72.25;100477.64;;;;-61
2021/08/22 03:46:05;;;;;;;2.78;2.58;;;;;;;21.64;72.25;100481.25;;;;-61
2021/08/22 03:49:05;;;;;;;2.71;2.51;;;;;;;21.64;72.24;100482.22;;;;-61
2021/08/22 03:52:05;;;;;;;2.61;2.41;;;;;;;21.65;72.27;100481.65;;;;-61
2021/08/22 03:55:04;;;;;;;2.60;2.40;;;;;;;21.64;72.25;100482.28;;;;-62
2021/08/22 03:58:05;;;;;;;2.51;2.31;;;;;;;21.64;72.27;100480.89;;;;-61
2021/08/22 04:01:05;;;;;;;2.49;2.29;;;;;;;21.64;72.27;100478.70;;;;-62
2021/08/22 04:04:05;;;;;;;2.61;2.41;;;;;;;21.63;72.23;100473.49;;;;-62
2021/08/22 04:07:05;;;;;;;2.53;2.33;;;;;;;21.63;72.27;100475.28;;;;-62
2021/08/22 04:10:05;;;;;;;2.69;2.49;;;;;;;21.64;72.24;100477.80;;;;-62
2021/08/22 04:13:04;;;;;;;2.88;2.62;;;;;;;21.63;72.27;100475.86;;;;-61
2021/08/22 04:16:05;;;;;;;2.62;2.41;;;;;;;21.63;72.24;100474.48;;;;-61
2021/08/22 04:19:05;;;;;;;2.59;2.39;;;;;;;21.63;72.24;100475.78;;;;-62
2021/08/22 04:22:04;;;;;;;2.63;2.39;;;;;;;21.62;72.22;100475.05;;;;-61
2021/08/22 04:25:05;;;;;;;2.51;2.31;;;;;;;21.62;72.22;100471.19;;;;-61
2021/08/22 04:28:05;;;;;;;2.60;2.40;;;;;;;21.62;72.21;100469.90;;;;-55
2021/08/22 04:31:05;;;;;;;2.57;2.37;;;;;;;21.62;72.23;100470.14;;;;-61
2021/08/22 04:34:05;;;;;;;2.57;2.37;;;;;;;21.62;72.24;100476.34;;;;-60
2021/08/22 04:37:04;;;;;;;2.49;2.29;;;;;;;21.61;72.25;100483.03;;;;-63
2021/08/22 04:40:05;;;;;;;2.45;2.25;;;;;;;21.61;72.28;100486.30;;;;-62
2021/08/22 04:43:05;;;;;;;2.61;2.41;;;;;;;21.60;72.25;100484.36;;;;-55
2021/08/22 04:46:04;;;;;;;2.63;2.39;;;;;;;21.61;72.23;100485.65;;;;-55
2021/08/22 04:49:05;;;;;;;2.35;2.15;;;;;;;21.60;72.28;100486.64;;;;-55
2021/08/22 04:52:04;;;;;;;2.55;2.35;;;;;;;21.60;72.22;100490.28;;;;-55
2021/08/22 04:55:05;;;;;;;2.50;2.30;;;;;;;21.61;72.22;100495.03;;;;-55
2021/08/22 04:58:05;;;;;;;2.45;2.25;;;;;;;21.59;72.22;100498.61;;;;-55
2021/08/22 05:01:04;;;;;;;2.50;2.30;;;;;;;21.59;72.25;100494.30;;;;-55
2021/08/22 05:04:05;;;;;;;2.38;2.18;;;;;;;21.59;72.19;100498.05;;;;-55
2021/08/22 05:07:05;;;;;;;2.46;2.26;;;;;;;21.59;72.21;100496.16;;;;-55
2021/08/22 05:10:04;;;;;;;2.55;2.35;;;;;;;21.59;72.22;100501.39;;;;-55
2021/08/22 05:13:05;;;;;;;2.48;2.28;;;;;;;21.59;72.22;100497.40;;;;-60
2021/08/22 05:16:05;;;;;;;2.53;2.32;;;;;;;21.58;72.20;100494.80;;;;-60
2021/08/22 05:19:04;;;;;;;2.49;2.29;;;;;;;21.58;72.20;100493.89;;;;-61
2021/08/22 05:22:05;;;;;;;2.67;2.47;;;;;;;21.58;72.25;100497.63;;;;-60
2021/08/22 05:25:04;;;;;;;2.44;2.22;;;;;;;21.58;72.21;100495.36;;;;-61
2021/08/22 05:28:05;;;;;;;2.52;2.32;;;;;;;21.59;72.19;100499.27;;;;-60
2021/08/22 05:31:05;;;;;;;2.40;2.20;;;;;;;21.58;72.21;100500.02;;;;-63
2021/08/22 05:34:04;;;;;;;2.60;2.40;;;;;;;21.58;72.26;100504.09;;;;-54
2021/08/22 05:37:05;;;;;;;2.21;2.05;;;;;;;21.58;72.25;100507.68;;;;-53
2021/08/22 05:40:05;;;;;;;2.45;2.21;;;;;;;21.58;72.20;100500.02;;;;-55
2021/08/22 05:43:04;;;;;;;2.49;2.29;;;;;;;21.58;72.19;100507.66;;;;-55
2021/08/22 05:46:05;;;;;;;2.49;2.29;;;;;;;21.58;72.21;100511.66;;;;-55
2021/08/22 05:49:04;;;;;;;2.30;2.10;;;;;;;21.58;72.24;100507.50;;;;-57
2021/08/22 05:52:04;;;;;;;2.38;2.18;;;;;;;21.58;72.23;100513.55;;;;-55
2021/08/22 05:55:05;;;;;;;2.20;2.00;;;;;;;21.58;72.20;100511.97;;;;-60
2021/08/22 05:58:04;;;;;;;2.42;2.22;;;;;;;21.57;72.24;100508.72;;;;-61
2021/08/22 06:01:05;;;;;;;2.61;2.40;;;;;;;21.57;72.25;100515.25;;;;-61
2021/08/22 06:04:05;;;;;;;2.45;2.21;;;;;;;21.58;72.24;100509.29;;;;-61
2021/08/22 06:07:04;;;;;;;2.40;2.20;;;;;;;21.57;72.18;100514.52;;;;-60
2021/08/22 06:10:06;;;;;;;2.36;2.16;;;;;;;21.57;72.24;100511.17;;;;-62
2021/08/22 06:13:05;;;;;;;2.25;2.05;;;;;;;21.57;72.24;100517.45;;;;-55
2021/08/22 06:16:04;;;;;;;2.48;2.23;;;;;;;21.57;72.19;100521.70;;;;-55
2021/08/22 06:19:05;;;;;;;2.25;2.05;;;;;;;21.57;72.20;100520.23;;;;-55
2021/08/22 06:22:04;;;;;;;2.43;2.23;;;;;;;21.57;72.22;100525.36;;;;-55
2021/08/22 06:25:04;;;;;;;2.37;2.17;;;;;;;21.58;72.22;100528.05;;;;-55
2021/08/22 06:28:05;;;;;;;2.41;2.21;;;;;;;21.56;72.24;100529.29;;;;-55
2021/08/22 06:31:04;;;;;;;2.41;2.21;;;;;;;21.56;72.22;100527.97;;;;-55
2021/08/22 06:34:06;;;;;;;2.40;2.20;;;;;;;21.56;72.24;100530.03;;;;-55
2021/08/22 06:37:05;;;;;;;2.31;2.11;;;;;;;21.56;72.24;100534.84;;;;-55
2021/08/22 06:40:05;;;;;;;2.27;2.07;;;;;;;21.56;72.23;100528.86;;;;-55
2021/08/22 06:43:05;;;;;;;2.25;2.05;;;;;;;21.55;72.20;100525.69;;;;-55
2021/08/22 06:46:05;;;;;;;2.30;2.10;;;;;;;21.56;72.21;100529.19;;;;-53
2021/08/22 06:49:04;;;;;;;2.42;2.22;;;;;;;21.55;72.23;100530.02;;;;-59
2021/08/22 06:52:05;;;;;;;2.23;2.03;;;;;;;21.54;72.22;100532.97;;;;-60
2021/08/22 06:55:05;;;;;;;2.37;2.17;;;;;;;21.55;72.22;100535.16;;;;-55
2021/08/22 06:58:04;;;;;;;2.37;2.17;;;;;;;21.55;72.21;100524.64;;;;-53
2021/08/22 07:01:05;;;;;;;2.19;2.00;;;;;;;21.54;72.22;100526.28;;;;-53
2021/08/22 07:04:04;;;;;;;2.41;2.21;;;;;;;21.54;72.23;100530.41;;;;-54
2021/08/22 07:07:05;;;;;;;2.37;2.17;;;;;;;21.54;72.22;100532.20;;;;-54
2021/08/22 07:10:05;;;;;;;2.30;2.10;;;;;;;21.54;72.19;100531.33;;;;-53
2021/08/22 07:13:05;;;;;;;2.17;1.98;;;;;;;21.54;72.22;100528.05;;;;-53
2021/08/22 07:16:05;;;;;;;2.29;2.09;;;;;;;21.54;72.22;100526.09;;;;-53
2021/08/22 07:19:05;;;;;;;2.31;2.11;;;;;;;21.53;72.23;100527.56;;;;-53
2021/08/22 07:22:05;;;;;;;2.20;1.98;;;;;;;21.53;72.24;100532.37;;;;-54
2021/08/22 07:25:06;;;;;;;2.27;2.07;;;;;;;21.53;72.23;100532.06;;;;-60
2021/08/22 07:28:04;;;;;;;2.03;1.93;;;;;;;21.53;72.23;100535.40;;;;-62
2021/08/22 07:31:06;;;;;;;2.40;2.20;;;;;;;21.53;72.22;100531.00;;;;-62
2021/08/22 07:34:05;;;;;;;2.32;2.12;;;;;;;21.53;72.18;100532.55;;;;-62
2021/08/22 07:37:04;;;;;;;2.31;2.11;;;;;;;21.53;72.23;100538.75;;;;-55
2021/08/22 07:40:05;;;;;;;2.20;2.00;;;;;;;21.53;72.17;100539.48;;;;-62
2021/08/22 07:43:05;;;;;;;2.26;2.06;;;;;;;21.53;72.20;100538.02;;;;-52
2021/08/22 07:46:04;;;;;;;2.17;2.02;;;;;;;21.53;72.19;100536.70;;;;-62
2021/08/22 07:49:04;;;;;;;2.88;2.20;;;;;;;21.53;72.16;100539.64;;;;-63
2021/08/22 07:52:05;;;;;;;2.09;1.99;;;;;;;21.52;72.19;100541.36;;;;-55
2021/08/22 07:55:04;;;;;;;2.27;2.07;;;;;;;21.54;72.35;100543.70;;;;-53
2021/08/22 07:58:04;;;;;;;7.54;2.62;;;;;;;21.51;72.93;100545.27;;;;-53
2021/08/22 08:01:04;;;;;;;3.07;2.75;;;;;;;21.51;73.82;100552.37;;;;-61
2021/08/22 08:04:04;;;;;;;5.24;3.09;;;;;;;21.47;75.02;100550.32;;;;-51
2021/08/22 08:07:05;;;;;;;3.72;3.32;;;;;;;21.47;74.97;100552.77;;;;-61
2021/08/22 08:10:04;;;;;;;3.88;3.21;;;;;;;21.46;75.49;100559.14;;;;-57
2021/08/22 08:13:04;;;;;;;4.05;3.39;;;;;;;21.46;75.48;100557.67;;;;-52
2021/08/22 08:16:05;;;;;;;4.63;3.01;;;;;;;21.51;74.84;100557.09;;;;-55
2021/08/22 08:19:04;;;;;;;5.05;3.11;;;;;;;21.52;74.62;100553.03;;;;-58
2021/08/22 08:22:05;;;;;;;3.40;2.73;;;;;;;21.55;74.60;100557.17;;;;-54
2021/08/22 08:25:05;;;;;;;4.11;2.74;;;;;;;21.59;74.45;100557.09;;;;-59
2021/08/22 08:28:05;;;;;;;4.04;2.69;;;;;;;21.61;74.40;100564.09;;;;-55
2021/08/22 08:31:05;;;;;;;3.91;2.71;;;;;;;21.64;74.31;100563.30;;;;-52
2021/08/22 08:34:04;;;;;;;6.05;2.70;;;;;;;21.66;74.43;100571.75;;;;-51
2021/08/22 08:37:04;;;;;;;4.06;2.88;;;;;;;21.68;74.24;100581.29;;;;-50
2021/08/22 08:40:05;;;;;;;5.80;2.85;;;;;;;21.69;74.20;100585.05;;;;-50
2021/08/22 08:43:04;;;;;;;3.64;2.73;;;;;;;21.70;73.79;100587.41;;;;-52
2021/08/22 08:46:04;;;;;;;6.73;2.87;;;;;;;21.70;73.98;100585.70;;;;-64
2021/08/22 08:49:05;;;;;;;6.15;2.71;;;;;;;21.71;74.00;100577.72;;;;-56
2021/08/22 08:52:04;;;;;;;4.87;2.70;;;;;;;21.73;73.93;100574.86;;;;-53
2021/08/22 08:55:05;;;;;;;3.86;2.75;;;;;;;21.75;73.84;100568.80;;;;-50
2021/08/22 08:58:05;;;;;;;4.29;2.74;;;;;;;21.75;73.83;100563.19;;;;-54
2021/08/22 09:01:04;;;;;;;6.13;2.84;;;;;;;21.77;73.79;100559.20;;;;-56
2021/08/22 09:04:05;;;;;;;4.03;2.87;;;;;;;21.78;73.55;100565.70;;;;-65
2021/08/22 09:07:05;;;;;;;4.61;2.59;;;;;;;21.77;73.61;100571.52;;;;-49
2021/08/22 09:11:04;;;;;;;3.97;2.65;;;;;;;21.79;73.72;100566.62;;;;-58
2021/08/22 09:20:31;;;;;;;3.64;2.72;;;;;;;21.84;73.69;100554.03;;;;-53
2021/08/22 09:25:30;;;;;;;6.06;2.76;;;;;;;21.85;73.52;100560.88;;;;-51
2021/08/22 09:29:30;;;;;;;4.21;2.48;;;;;;;21.85;73.54;100576.23;;;;-60
2021/08/22 09:34:30;;;;;;;5.08;2.75;;;;;;;21.84;73.48;100576.06;;;;-57
2021/08/22 09:38:30;;;;;;;5.37;2.52;;;;;;;21.86;73.57;100569.37;;;;-50
2021/08/22 09:41:30;;;;;;;5.91;3.01;;;;;;;21.86;73.59;100565.20;;;;-51
2021/08/22 09:46:30;;;;;;;5.13;2.65;;;;;;;21.87;73.29;100550.20;;;;-55
2021/08/22 09:50:32;;;;;;;4.21;2.60;;;;;;;21.87;73.52;100553.61;;;;-57
2021/08/22 09:55:30;;;;;;;5.59;2.69;;;;;;;21.87;73.33;100583.81;;;;-59
2021/08/22 09:59:30;;;;;;;4.15;2.77;;;;;;;21.90;73.43;100590.58;;;;-62
2021/08/22 10:04:30;;;;;;;6.87;2.70;;;;;;;21.91;73.49;100595.21;;;;-59
2021/08/22 10:08:30;;;;;;;5.75;2.62;;;;;;;21.92;73.44;100591.64;;;;-52
2021/08/22 10:11:31;;;;;;;2.86;2.59;;;;;;;21.94;73.41;100590.83;;;;-52
2021/08/22 10:14:30;;;;;;;4.73;2.68;;;;;;;21.96;73.43;100589.52;;;;-49
2021/08/22 10:17:30;;;;;;;6.17;2.52;;;;;;;21.96;73.35;100596.37;;;;-57
2021/08/22 10:20:30;;;;;;;7.70;2.69;;;;;;;21.96;73.46;100590.32;;;;-52
2021/08/22 10:23:30;;;;;;;3.95;2.47;;;;;;;21.98;73.35;100586.73;;;;-58
2021/08/22 10:26:30;;;;;;;4.39;2.63;;;;;;;21.99;73.37;100586.55;;;;-54
2021/08/22 10:31:30;;;;;;;5.86;2.63;;;;;;;21.99;73.37;100581.98;;;;-57
2021/08/22 10:34:30;;;;;;;5.77;2.71;;;;;;;22.01;73.33;100580.59;;;;-57
2021/08/22 10:37:30;;;;;;;3.77;2.46;;;;;;;22.02;73.29;100579.11;;;;-59
2021/08/22 10:40:30;;;;;;;5.01;2.46;;;;;;;22.02;73.33;100577.91;;;;-51
2021/08/22 10:43:35;;;;;;;4.06;2.43;;;;;;;22.03;73.28;100571.29;;;;-55
2021/08/22 10:46:30;;;;;;;3.81;2.68;;;;;;;22.04;73.25;100568.27;;;;-52
2021/08/22 10:49:30;;;;;;;4.79;2.59;;;;;;;22.05;73.23;100569.89;;;;-50
2021/08/22 10:52:30;;;;;;;4.33;2.51;;;;;;;22.04;72.94;100561.91;;;;-58
2021/08/22 10:55:32;;;;;;;4.85;2.51;;;;;;;22.05;73.12;100557.41;;;;-59
2021/08/22 10:58:30;;;;;;;5.57;2.59;;;;;;;22.04;73.08;100553.09;;;;-51
2021/08/22 11:01:30;;;;;;;4.64;2.70;;;;;;;22.04;73.10;100547.70;;;;-63
2021/08/22 11:04:30;;;;;;;4.33;2.57;;;;;;;22.06;73.14;100553.31;;;;-63
2021/08/22 11:07:30;;;;;;;3.35;2.38;;;;;;;22.07;73.15;100562.78;;;;-60
2021/08/22 11:10:30;;;;;;;3.20;2.31;;;;;;;22.06;73.04;100562.13;;;;-63
2021/08/22 11:13:30;;;;;;;5.18;2.84;;;;;;;22.05;73.08;100560.67;;;;-62
2021/08/22 11:16:30;;;;;;;4.46;2.47;;;;;;;22.05;73.03;100560.75;;;;-63
2021/08/22 11:19:30;;;;;;;6.13;2.45;;;;;;;22.05;73.05;100566.80;;;;-63
2021/08/22 11:22:30;;;;;;;4.69;2.45;;;;;;;22.04;73.02;100565.50;;;;-62
2021/08/22 11:25:30;;;;;;;4.43;2.53;;;;;;;22.04;72.98;100559.30;;;;-62
2021/08/22 11:28:30;;;;;;;3.50;2.55;;;;;;;22.03;72.90;100559.61;;;;-62
2021/08/22 11:31:31;;;;;;;4.03;2.31;;;;;;;22.04;72.89;100565.89;;;;-53
2021/08/22 11:34:30;;;;;;;3.90;2.46;;;;;;;22.03;72.82;100558.64;;;;-53
2021/08/22 11:37:30;;;;;;;5.23;2.70;;;;;;;22.03;72.76;100563.70;;;;-53
2021/08/22 11:40:30;;;;;;;3.20;2.37;;;;;;;22.02;72.75;100562.89;;;;-57
2021/08/22 11:43:30;;;;;;;4.41;2.37;;;;;;;22.02;72.71;100562.40;;;;-51
2021/08/22 11:46:30;;;;;;;3.15;2.41;;;;;;;22.02;72.68;100556.94;;;;-57
2021/08/22 11:49:30;;;;;;;3.43;2.23;;;;;;;22.02;72.62;100556.03;;;;-57
2021/08/22 11:52:30;;;;;;;4.59;2.50;;;;;;;22.02;72.64;100555.94;;;;-57
2021/08/22 11:55:31;;;;;;;3.33;2.45;;;;;;;22.02;72.67;100554.47;;;;-58
2021/08/22 11:58:30;;;;;;;4.02;2.55;;;;;;;22.01;72.62;100551.94;;;;-57
2021/08/22 12:01:30;;;;;;;3.73;2.23;;;;;;;22.00;72.61;100557.92;;;;-53
2021/08/22 12:04:33;;;;;;;2.52;2.27;;;;;;;22.01;72.59;100551.21;;;;-57
2021/08/22 12:07:30;;;;;;;3.25;2.39;;;;;;;22.00;72.56;100542.50;;;;-58
2021/08/22 12:10:30;;;;;;;3.98;2.39;;;;;;;22.00;72.56;100537.84;;;;-53
2021/08/22 12:13:30;;;;;;;3.52;2.25;;;;;;;22.00;72.56;100532.45;;;;-53
2021/08/22 12:16:30;;;;;;;4.48;2.27;;;;;;;22.00;72.51;100532.05;;;;-53
2021/08/22 12:19:30;;;;;;;2.84;2.33;;;;;;;21.99;72.50;100526.73;;;;-51
2021/08/22 12:22:30;;;;;;;2.71;2.15;;;;;;;21.99;72.48;100529.43;;;;-52
2021/08/22 12:25:30;;;;;;;8.41;2.45;;;;;;;21.99;72.45;100535.22;;;;-61
2021/08/22 12:28:30;;;;;;;4.67;2.26;;;;;;;21.98;72.50;100533.44;;;;-61
2021/08/22 12:31:30;;;;;;;3.80;2.42;;;;;;;21.98;72.58;100527.07;;;;-59
2021/08/22 12:34:30;;;;;;;3.20;2.32;;;;;;;22.00;72.57;100528.22;;;;-53
2021/08/22 12:37:30;;;;;;;3.38;2.39;;;;;;;22.01;72.63;100525.17;;;;-60
2021/08/22 12:40:30;;;;;;;4.72;2.37;;;;;;;22.03;72.63;100526.47;;;;-59
2021/08/22 12:43:30;;;;;;;3.55;2.25;;;;;;;22.05;72.65;100530.31;;;;-54
2021/08/22 12:46:30;;;;;;;5.37;2.53;;;;;;;22.05;72.70;100531.53;;;;-57
2021/08/22 12:49:30;;;;;;;2.90;2.31;;;;;;;22.07;72.65;100527.86;;;;-54
2021/08/22 12:52:30;;;;;;;3.03;2.31;;;;;;;22.07;72.70;100527.11;;;;-51
2021/08/22 12:55:30;;;;;;;3.94;2.48;;;;;;;22.07;72.77;100522.14;;;;-54
2021/08/22 12:58:30;;;;;;;3.01;2.48;;;;;;;22.08;72.57;100520.94;;;;-50
2021/08/22 13:01:30;;;;;;;2.83;2.21;;;;;;;22.07;72.80;100520.02;;;;-51
2021/08/22 13:04:30;;;;;;;4.59;2.47;;;;;;;22.07;72.76;100526.55;;;;-51
2021/08/22 13:07:30;;;;;;;3.01;2.39;;;;;;;22.07;72.69;100528.10;;;;-59
2021/08/22 13:10:30;;;;;;;3.13;2.43;;;;;;;22.06;72.67;100526.16;;;;-60
2021/08/22 13:13:30;;;;;;;3.13;2.50;;;;;;;22.06;72.63;100531.05;;;;-60
2021/08/22 13:16:30;;;;;;;2.95;2.51;;;;;;;22.05;72.63;100535.20;;;;-59
2021/08/22 13:19:30;;;;;;;3.43;2.22;;;;;;;22.05;72.63;100540.19;;;;-61
2021/08/22 13:22:30;;;;;;;2.90;2.21;;;;;;;22.04;72.62;100542.41;;;;-56
2021/08/22 13:25:31;;;;;;;5.51;2.45;;;;;;;22.03;72.54;100548.02;;;;-50
2021/08/22 13:28:30;;;;;;;3.67;2.41;;;;;;;22.04;72.54;100558.73;;;;-54
2021/08/22 13:31:30;;;;;;;3.77;2.45;;;;;;;22.04;72.56;100566.64;;;;-54
2021/08/22 13:34:30;;;;;;;2.83;2.24;;;;;;;22.03;72.53;100545.33;;;;-54
2021/08/22 13:37:30;;;;;;;2.97;2.45;;;;;;;22.03;72.51;100539.22;;;;-54
2021/08/22 13:40:30;;;;;;;2.95;2.58;;;;;;;22.02;72.50;100545.27;;;;-54
2021/08/22 13:43:30;;;;;;;2.69;2.12;;;;;;;22.02;72.52;100550.33;;;;-54
2021/08/22 13:46:30;;;;;;;3.85;2.36;;;;;;;22.02;72.45;100538.66;;;;-56
2021/08/22 13:49:30;;;;;;;2.66;2.25;;;;;;;22.02;72.44;100550.17;;;;-50
2021/08/22 13:52:30;;;;;;;2.87;2.09;;;;;;;22.01;72.45;100562.55;;;;-50
2021/08/22 13:55:31;;;;;;;2.63;2.28;;;;;;;22.00;72.49;100559.88;;;;-60
2021/08/22 13:58:30;;;;;;;3.17;2.27;;;;;;;22.00;72.47;100562.16;;;;-61
2021/08/22 14:01:30;;;;;;;2.71;2.47;;;;;;;22.00;72.50;100573.02;;;;-60
2021/08/22 14:04:30;;;;;;;3.11;2.08;;;;;;;21.99;72.46;100573.41;;;;-59
2021/08/22 14:07:30;;;;;;;7.18;2.45;;;;;;;22.00;72.51;100585.82;;;;-61
2021/08/22 14:10:30;;;;;;;2.33;2.13;;;;;;;22.02;72.62;100585.42;;;;-50
2021/08/22 14:13:30;;;;;;;3.05;2.36;;;;;;;22.03;72.73;100581.89;;;;-56
2021/08/22 14:16:30;;;;;;;3.36;2.19;;;;;;;22.04;72.80;100569.83;;;;-46
2021/08/22 14:19:30;;;;;;;2.39;2.17;;;;;;;22.05;72.92;100573.23;;;;-50
2021/08/22 14:22:30;;;;;;;2.91;2.35;;;;;;;22.06;72.97;100575.05;;;;-51
2021/08/22 14:25:30;;;;;;;5.12;2.31;;;;;;;22.07;73.15;100580.34;;;;-54
2021/08/22 14:28:31;;;;;;;2.57;2.30;;;;;;;22.08;73.22;100576.48;;;;-59
2021/08/22 14:31:30;;;;;;;2.60;2.19;;;;;;;22.08;73.22;100568.75;;;;-50
2021/08/22 14:34:30;;;;;;;2.33;2.02;;;;;;;22.07;73.28;100555.35;;;;-55
2021/08/22 14:37:30;;;;;;;2.80;2.19;;;;;;;22.08;73.28;100553.16;;;;-51
2021/08/22 14:40:30;;;;;;;2.18;1.98;;;;;;;22.08;73.36;100552.27;;;;-50
2021/08/22 14:43:30;;;;;;;3.63;2.12;;;;;;;22.10;73.32;100544.56;;;;-53
2021/08/22 14:46:30;;;;;;;4.77;2.04;;;;;;;22.10;73.24;100543.86;;;;-55
2021/08/22 14:49:30;;;;;;;2.43;2.16;;;;;;;22.10;73.24;100545.63;;;;-65
2021/08/22 14:52:30;;;;;;;2.58;2.05;;;;;;;22.10;73.25;100543.09;;;;-66
2021/08/22 14:55:30;;;;;;;2.89;2.05;;;;;;;22.09;73.17;100554.04;;;;-67
2021/08/22 14:58:30;;;;;;;2.50;2.07;;;;;;;22.09;73.11;100556.25;;;;-54
2021/08/22 15:01:30;;;;;;;2.97;2.17;;;;;;;22.08;73.11;100541.41;;;;-53
2021/08/22 15:04:30;;;;;;;4.02;2.17;;;;;;;22.07;73.08;100543.11;;;;-66
2021/08/22 15:07:30;;;;;;;3.89;2.20;;;;;;;22.07;73.07;100563.77;;;;-54
2021/08/22 15:10:30;;;;;;;2.79;2.18;;;;;;;22.08;72.99;100559.20;;;;-57
2021/08/22 15:13:30;;;;;;;2.90;2.00;;;;;;;22.10;73.05;100568.50;;;;-51
2021/08/22 15:16:30;;;;;;;3.93;2.30;;;;;;;22.11;73.08;100582.70;;;;-53
2021/08/22 15:19:30;;;;;;;3.67;2.24;;;;;;;22.12;73.04;100594.67;;;;-57
2021/08/22 15:22:30;;;;;;;2.55;2.07;;;;;;;22.12;73.08;100565.07;;;;-58
2021/08/22 15:25:30;;;;;;;3.07;2.22;;;;;;;22.13;73.09;100574.86;;;;-57
2021/08/22 15:28:30;;;;;;;3.12;2.07;;;;;;;22.13;73.11;100588.31;;;;-55
2021/08/22 15:31:30;;;;;;;2.32;2.12;;;;;;;22.14;73.12;100594.61;;;;-50
2021/08/22 15:34:30;;;;;;;3.43;2.23;;;;;;;22.15;72.99;100598.44;;;;-51
2021/08/22 15:37:30;;;;;;;5.83;2.14;;;;;;;22.15;72.98;100604.55;;;;-47
2021/08/22 15:40:30;;;;;;;3.41;2.19;;;;;;;22.17;73.07;100624.40;;;;-51
2021/08/22 15:43:30;;;;;;;3.07;2.22;;;;;;;22.17;72.90;100611.74;;;;-50
2021/08/22 15:46:30;;;;;;;3.35;2.10;;;;;;;22.18;73.28;100580.22;;;;-54
2021/08/22 15:49:30;;;;;;;3.67;2.20;;;;;;;22.17;73.25;100573.61;;;;-57
2021/08/22 15:52:30;;;;;;;4.85;2.47;;;;;;;22.19;73.19;100576.06;;;;-59
2021/08/22 15:55:30;;;;;;;2.59;1.97;;;;;;;22.19;73.22;100588.06;;;;-58
2021/08/22 15:58:30;;;;;;;5.31;2.18;;;;;;;22.20;73.22;100593.03;;;;-53
2021/08/22 16:01:30;;;;;;;4.78;2.27;;;;;;;22.20;73.20;100594.27;;;;-63
2021/08/22 16:04:30;;;;;;;3.49;2.06;;;;;;;22.20;73.18;100587.58;;;;-57
2021/08/22 16:07:30;;;;;;;3.15;2.29;;;;;;;22.20;73.22;100587.23;;;;-60
2021/08/22 16:10:30;;;;;;;3.04;1.96;;;;;;;22.20;73.28;100586.16;;;;-57
2021/08/22 16:13:30;;;;;;;5.37;2.16;;;;;;;22.21;73.20;100592.63;;;;-50
2021/08/22 16:16:30;;;;;;;3.73;2.23;;;;;;;22.20;73.28;100591.66;;;;-58
2021/08/22 16:19:30;;;;;;;3.41;2.10;;;;;;;22.20;73.24;100590.73;;;;-52
2021/08/22 16:22:30;;;;;;;3.54;2.20;;;;;;;22.21;73.23;100589.69;;;;-52
2021/08/22 16:25:30;;;;;;;2.53;2.08;;;;;;;22.22;73.24;100591.47;;;;-53
2021/08/22 16:28:30;;;;;;;3.16;2.07;;;;;;;22.22;73.19;100598.23;;;;-53
2021/08/22 16:31:30;;;;;;;4.15;2.19;;;;;;;22.24;73.18;100595.09;;;;-54
2021/08/22 16:34:30;;;;;;;4.09;2.12;;;;;;;22.24;73.18;100593.46;;;;-58
2021/08/22 16:37:30;;;;;;;2.31;1.97;;;;;;;22.24;73.17;100591.73;;;;-61
2021/08/22 16:40:30;;;;;;;2.38;2.07;;;;;;;22.24;73.11;100590.42;;;;-62
2021/08/22 16:43:30;;;;;;;3.40;2.03;;;;;;;22.25;73.03;100595.11;;;;-50
2021/08/22 16:46:30;;;;;;;2.48;2.05;;;;;;;22.25;73.11;100590.69;;;;-59
2021/08/22 16:49:30;;;;;;;2.53;1.98;;;;;;;22.25;72.98;100588.73;;;;-54
2021/08/22 16:52:30;;;;;;;3.35;1.87;;;;;;;22.25;73.07;100587.92;;;;-54
2021/08/22 16:55:30;;;;;;;2.21;2.01;;;;;;;22.23;73.05;100591.66;;;;-55
2021/08/22 16:58:31;;;;;;;3.86;2.09;;;;;;;22.22;73.01;100589.91;;;;-54
2021/08/22 17:01:30;;;;;;;2.92;2.00;;;;;;;22.22;72.99;100598.16;;;;-59
2021/08/22 17:04:30;;;;;;;3.85;2.20;;;;;;;22.22;73.00;100595.39;;;;-57
2021/08/22 17:07:30;;;;;;;2.31;1.84;;;;;;;22.23;72.97;100592.24;;;;-61